Tomberlin, Arkansas
Current Conditions -  °F | °C
As of 12:35 AM on Sunday 21 Dec 2014 (Local Time) from KSGT Reporting Station
NA  
Wind Chill: 30°   Ceiling: NA
Heat Index: 36°   Visibility: NA
Dew Point: 32°   Wind: 7mph
Humidity: 87%   Direction: 20°NNE
Pressure: 30.24"   Gusts: NA
Location:  34.5894°N, 91.9107°W
Report Text: KSGT 210635Z 02006KT 02/00 A3024 RMK AO1
Loading
Personal Weather Stations






























Interactive Weather Map New forecast layout! Learn more

10-Day Weather Forecast

Advertisements
Track Severe Weather on mobile